createdAt,value
2023-04-21T00:01:08.587Z,26.70
2023-04-21T00:06:12.316Z,27.77
2023-04-21T00:11:16.142Z,33.83
2023-04-21T00:16:20.550Z,27.40
2023-04-21T00:21:23.533Z,26.97
2023-04-21T00:26:26.510Z,24.33
2023-04-21T00:31:31.067Z,25.23
2023-04-21T00:36:34.084Z,24.10
2023-04-21T00:41:38.599Z,28.60
2023-04-21T00:46:43.336Z,24.70
2023-04-21T00:51:46.577Z,23.70
2023-04-21T00:56:51.624Z,25.70
2023-04-21T01:01:55.951Z,24.70
2023-04-21T01:06:59.953Z,24.07
2023-04-21T01:12:04.238Z,23.87
2023-04-21T01:17:11.470Z,27.23
2023-04-21T01:22:16.882Z,28.10
2023-04-21T01:27:21.162Z,27.23
2023-04-21T01:32:27.203Z,25.73
2023-04-21T01:37:33.671Z,24.90
2023-04-21T01:42:38.981Z,23.97
2023-04-21T01:47:41.985Z,25.50
2023-04-21T01:52:46.336Z,23.87
2023-04-21T01:57:51.249Z,24.67
2023-04-21T02:02:54.360Z,27.57
2023-04-21T02:07:58.748Z,24.70
2023-04-21T02:13:01.717Z,25.50
2023-04-21T02:18:06.553Z,26.97
2023-04-21T02:23:11.107Z,29.20
2023-04-21T02:28:14.080Z,39.10
2023-04-21T02:33:17.119Z,31.63
2023-04-21T02:38:21.437Z,27.80
2023-04-21T02:43:24.397Z,30.47
2023-04-21T02:48:27.755Z,28.20
2023-04-21T02:53:32.890Z,28.93
2023-04-21T02:58:36.589Z,27.57
2023-04-21T03:03:39.598Z,30.27
2023-04-21T03:08:43.898Z,37.10
2023-04-21T03:13:46.762Z,33.10
2023-04-21T03:18:49.686Z,32.50
2023-04-21T03:23:54.023Z,28.07
2023-04-21T03:28:57.036Z,25.60
2023-04-21T03:34:00.312Z,29.30
2023-04-21T03:39:18.777Z,25.13
2023-04-21T03:44:23.355Z,26.07
2023-04-21T03:49:26.322Z,21.30
2023-04-21T03:54:30.804Z,21.83
2023-04-21T03:59:33.711Z,28.20
2023-04-21T04:04:36.986Z,31.57
2023-04-21T04:09:41.376Z,28.13
2023-04-21T04:14:44.277Z,27.73
2023-04-21T04:19:47.180Z,25.07
2023-04-21T04:24:51.399Z,23.47
2023-04-21T04:29:54.316Z,31.80
2023-04-21T04:34:57.234Z,25.97
2023-04-21T04:40:01.545Z,28.30
2023-04-21T04:45:04.940Z,23.30
2023-04-21T04:50:08.658Z,23.80
2023-04-21T04:55:13.100Z,27.77
2023-04-21T05:00:16.333Z,24.00
2023-04-21T05:05:19.260Z,25.80
2023-04-21T05:10:23.588Z,29.67
2023-04-21T05:15:26.533Z,22.03
2023-04-21T05:20:29.435Z,26.80
2023-04-21T05:25:33.711Z,23.83
2023-04-21T05:30:36.934Z,27.20
2023-04-21T05:35:39.875Z,23.93
2023-04-21T05:40:44.155Z,28.53
2023-04-21T05:45:47.136Z,21.83
2023-04-21T05:50:50.151Z,23.53
2023-04-21T05:55:54.415Z,24.50
2023-04-21T06:00:57.361Z,30.90
2023-04-21T06:06:02.289Z,32.40
2023-04-21T06:11:06.909Z,29.60
2023-04-21T06:16:09.965Z,25.67
2023-04-21T06:21:12.916Z,30.40
2023-04-21T06:26:17.199Z,30.53
2023-04-21T06:31:20.255Z,27.57
2023-04-21T06:36:23.318Z,28.10
2023-04-21T06:41:28.501Z,26.17
2023-04-21T06:46:31.484Z,32.00
2023-04-21T06:51:34.467Z,32.30
2023-04-21T06:56:38.816Z,15.80
2023-04-21T07:01:41.967Z,10.90
2023-04-21T07:06:44.991Z,9.30
2023-04-21T07:11:49.283Z,12.20
2023-04-21T07:16:52.248Z,8.80
2023-04-21T07:21:55.199Z,11.20
2023-04-21T07:26:59.473Z,9.80
2023-04-21T07:32:02.368Z,8.93
2023-04-21T07:37:05.247Z,14.10
2023-04-21T07:42:11.076Z,14.30
2023-04-21T07:47:15.169Z,13.37
2023-04-21T07:52:18.039Z,12.27
2023-04-21T07:57:22.307Z,12.90
2023-04-21T08:02:25.429Z,11.00
2023-04-21T08:07:28.553Z,12.33
2023-04-21T08:12:32.857Z,9.97
2023-04-21T08:17:36.194Z,11.73
2023-04-21T08:22:39.239Z,12.30
2023-04-21T08:27:43.952Z,11.47
2023-04-21T08:32:46.972Z,7.77
2023-04-21T08:37:51.592Z,10.93
2023-04-21T08:42:59.236Z,11.00
2023-04-21T08:48:04.612Z,12.27
2023-04-21T08:53:07.681Z,9.30
2023-04-21T08:58:13.369Z,10.77
2023-04-21T09:03:25.843Z,9.00
2023-04-21T09:08:30.483Z,11.10
2023-04-21T09:13:36.371Z,11.63
2023-04-21T09:18:40.467Z,8.10
2023-04-21T09:23:44.539Z,12.90
2023-04-21T09:28:50.992Z,13.40
2023-04-21T09:33:58.366Z,12.63
2023-04-21T09:44:12.129Z,16.00
2023-04-21T09:49:18.018Z,8.63
2023-04-21T09:54:29.823Z,8.90
2023-04-21T09:59:37.076Z,8.30
2023-04-21T10:04:43.218Z,10.00
2023-04-21T10:09:50.123Z,9.97
2023-04-21T10:14:54.596Z,10.67
2023-04-21T10:19:59.960Z,9.87
2023-04-21T10:25:04.513Z,5.80
2023-04-21T10:30:23.456Z,9.60
2023-04-21T10:35:26.785Z,6.70
2023-04-21T10:45:47.036Z,10.03
2023-04-21T10:50:49.962Z,12.80
2023-04-21T10:55:54.382Z,5.67
2023-04-21T11:00:59.242Z,5.97
2023-04-21T11:06:15.661Z,10.60
2023-04-21T11:11:23.891Z,11.73
2023-04-21T11:16:28.433Z,6.70
2023-04-21T11:21:31.674Z,6.73
2023-04-21T11:26:38.342Z,11.87
2023-04-21T11:31:45.497Z,9.93
2023-04-21T11:36:49.884Z,17.77
2023-04-21T11:41:53.221Z,13.77
2023-04-21T11:46:57.655Z,5.57
2023-04-21T11:52:00.616Z,9.97
2023-04-21T11:57:03.562Z,5.53
2023-04-21T12:02:15.384Z,8.17
2023-04-21T12:07:24.104Z,7.67
2023-04-21T12:12:27.394Z,7.40
2023-04-21T12:17:39.104Z,9.60
2023-04-21T12:22:42.076Z,6.97
2023-04-21T12:27:52.067Z,12.70
2023-04-21T12:32:56.545Z,7.53
2023-04-21T12:37:59.492Z,7.20
2023-04-21T12:43:02.437Z,6.83
2023-04-21T12:48:06.933Z,8.23
2023-04-21T12:53:09.874Z,6.93
2023-04-21T12:58:15.710Z,6.40
2023-04-21T13:03:20.106Z,5.43
2023-04-21T13:08:23.105Z,7.10
2023-04-21T13:13:26.586Z,7.27
2023-04-21T13:18:31.103Z,10.60
2023-04-21T13:23:34.090Z,6.47
2023-04-21T13:28:37.363Z,11.90
2023-04-21T13:33:42.151Z,7.40
2023-04-21T13:38:45.490Z,6.90
2023-04-21T13:43:48.474Z,6.60
2023-04-21T13:48:52.851Z,4.83
2023-04-21T13:53:55.862Z,7.90
2023-04-21T13:59:00.111Z,7.17
2023-04-21T14:04:04.587Z,5.30
2023-04-21T14:09:09.466Z,6.50
2023-04-21T14:14:15.255Z,4.77
2023-04-21T14:19:21.330Z,6.87
2023-04-21T14:24:25.503Z,7.37
2023-04-21T14:29:28.522Z,6.47
2023-04-21T14:34:32.805Z,12.30
2023-04-21T14:39:35.847Z,8.00
2023-04-21T14:44:39.237Z,9.70
2023-04-21T14:49:43.918Z,6.70
2023-04-21T14:54:46.790Z,8.07
2023-04-21T14:59:51.478Z,10.37
2023-04-21T15:04:55.913Z,6.60
2023-04-21T15:09:58.938Z,6.73
2023-04-21T15:15:01.938Z,10.30
2023-04-21T15:20:07.572Z,6.70
2023-04-21T15:25:11.174Z,5.50
2023-04-21T15:30:15.138Z,7.20
2023-04-21T15:35:19.638Z,8.60
2023-04-21T15:40:22.596Z,6.37
2023-04-21T15:45:25.580Z,7.33
2023-04-21T15:50:31.468Z,13.17
2023-04-21T15:55:34.904Z,7.87
2023-04-21T16:00:38.112Z,14.37
2023-04-21T16:05:42.570Z,9.07
2023-04-21T16:10:45.975Z,5.10
2023-04-21T16:15:48.936Z,8.33
2023-04-21T16:20:53.879Z,5.80
2023-04-21T16:25:57.131Z,8.47
2023-04-21T16:31:00.012Z,7.43
2023-04-21T16:36:05.712Z,11.50
2023-04-21T16:41:08.787Z,8.23
2023-04-21T16:46:11.705Z,12.30
2023-04-21T16:51:16.037Z,9.93
2023-04-21T16:56:20.313Z,11.97
2023-04-21T17:01:23.269Z,12.50
2023-04-21T17:06:28.951Z,11.30
2023-04-21T17:11:32.635Z,9.97
2023-04-21T17:16:35.733Z,13.03
2023-04-21T17:21:40.048Z,10.33
2023-04-21T17:26:43.368Z,11.80
2023-04-21T17:31:46.354Z,12.83
2023-04-21T17:36:50.731Z,13.87
2023-04-21T17:41:53.763Z,14.37
2023-04-21T17:46:57.882Z,11.90
2023-04-21T17:52:02.212Z,17.33
2023-04-21T17:57:06.743Z,11.70
2023-04-21T18:02:09.800Z,14.10
2023-04-21T18:07:14.993Z,10.70
2023-04-21T18:12:18.378Z,25.10
2023-04-21T18:17:23.422Z,13.70
2023-04-21T18:22:27.777Z,12.77
2023-04-21T18:27:31.248Z,15.27
2023-04-21T18:32:34.755Z,17.37
2023-04-21T18:37:39.107Z,16.13
2023-04-21T18:42:41.994Z,11.63
2023-04-21T18:47:46.928Z,11.40
2023-04-21T18:52:51.340Z,17.70
2023-04-21T18:57:55.047Z,24.43
2023-04-21T19:02:58.491Z,21.93
2023-04-21T19:08:03.081Z,26.37
2023-04-21T19:13:06.386Z,23.03
2023-04-21T19:18:09.443Z,16.57
2023-04-21T19:23:13.746Z,18.60
2023-04-21T19:28:16.677Z,16.53
2023-04-21T19:33:19.659Z,18.60
2023-04-21T19:38:24.096Z,14.30
2023-04-21T19:43:26.991Z,14.20
2023-04-21T19:48:29.940Z,12.07
2023-04-21T19:53:34.356Z,17.23
2023-04-21T19:58:40.678Z,11.80
2023-04-21T20:03:43.959Z,13.23
2023-04-21T20:08:48.275Z,13.63
2023-04-21T20:13:51.622Z,13.37
2023-04-21T20:18:55.542Z,13.33
2023-04-21T20:23:59.839Z,16.10
2023-04-21T20:29:02.781Z,20.10
2023-04-21T20:34:05.680Z,16.20
2023-04-21T20:39:10.021Z,13.33
2023-04-21T20:44:14.217Z,12.27
2023-04-21T20:49:17.188Z,17.83
2023-04-21T20:54:21.424Z,14.20
2023-04-21T20:59:24.400Z,14.47
2023-04-21T21:04:27.579Z,10.70
2023-04-21T21:09:32.706Z,13.60
2023-04-21T21:14:35.827Z,15.57
2023-04-21T21:19:39.183Z,11.87
2023-04-21T21:24:43.671Z,14.90
2023-04-21T21:29:46.620Z,16.37
2023-04-21T21:34:49.713Z,13.73
2023-04-21T21:39:55.263Z,14.43
2023-04-21T21:44:58.267Z,12.20
2023-04-21T21:50:01.268Z,16.90
2023-04-21T21:55:06.344Z,17.33
2023-04-21T22:00:12.966Z,18.83
2023-04-21T22:05:15.855Z,20.33
2023-04-21T22:10:20.216Z,14.63
2023-04-21T22:15:23.119Z,14.10
2023-04-21T22:20:26.946Z,16.40
2023-04-21T22:25:31.256Z,21.47
2023-04-21T22:30:34.273Z,13.73
2023-04-21T22:35:37.202Z,16.70
2023-04-21T22:40:41.602Z,16.80
2023-04-21T22:45:44.507Z,15.50
2023-04-21T22:50:47.455Z,16.30
2023-04-21T22:55:51.832Z,16.47
2023-04-21T23:00:54.867Z,19.60
2023-04-21T23:05:57.881Z,16.43
2023-04-21T23:11:04.073Z,13.77
2023-04-21T23:16:07.195Z,15.30
2023-04-21T23:21:10.168Z,12.80
2023-04-21T23:26:14.446Z,14.80
2023-04-21T23:31:17.434Z,19.07
2023-04-21T23:36:20.314Z,17.03
2023-04-21T23:41:24.642Z,16.60
2023-04-21T23:46:27.730Z,22.63
2023-04-21T23:51:31.309Z,15.80
2023-04-21T23:56:35.898Z,15.80
